createdAt,value
2019-01-08T00:00:03.721Z,8.00
2019-01-08T00:02:32.076Z,7.90
2019-01-08T00:05:00.539Z,7.90
2019-01-08T00:07:28.945Z,7.90
2019-01-08T00:09:57.352Z,7.90
2019-01-08T00:12:25.762Z,7.90
2019-01-08T00:14:54.164Z,7.80
2019-01-08T00:17:22.572Z,7.80
2019-01-08T00:19:50.990Z,7.80
2019-01-08T00:22:19.385Z,7.70
2019-01-08T00:24:48.688Z,7.70
2019-01-08T00:27:18.886Z,7.70
2019-01-08T00:29:47.288Z,7.70
2019-01-08T00:32:15.855Z,7.60
2019-01-08T00:34:44.257Z,7.60
2019-01-08T00:37:12.665Z,7.60
2019-01-08T00:39:41.064Z,7.60
2019-01-08T00:42:09.503Z,7.60
2019-01-08T00:44:37.952Z,7.70
2019-01-08T00:47:06.361Z,7.70
2019-01-08T00:49:34.762Z,7.60
2019-01-08T00:52:03.175Z,7.60
2019-01-08T00:54:31.575Z,7.60
2019-01-08T00:56:59.987Z,7.60
2019-01-08T00:59:28.390Z,7.60
2019-01-08T01:01:57.939Z,7.60
2019-01-08T01:04:26.337Z,7.60
2019-01-08T01:06:54.747Z,7.60
2019-01-08T01:09:23.141Z,7.70
2019-01-08T01:11:51.552Z,7.60
2019-01-08T01:14:19.952Z,7.60
2019-01-08T01:16:48.384Z,7.60
2019-01-08T01:19:17.100Z,7.60
2019-01-08T01:21:45.511Z,7.60
2019-01-08T01:24:13.912Z,7.60
2019-01-08T01:26:42.332Z,7.50
2019-01-08T01:29:10.734Z,7.60
2019-01-08T01:31:39.146Z,7.50
2019-01-08T01:34:07.674Z,7.50
2019-01-08T01:36:36.419Z,7.50
2019-01-08T01:39:06.557Z,7.50
2019-01-08T01:41:35.060Z,7.50
2019-01-08T01:44:03.461Z,7.50
2019-01-08T01:46:31.877Z,7.50
2019-01-08T01:49:00.284Z,7.30
2019-01-08T01:51:28.684Z,7.30
2019-01-08T01:53:57.084Z,7.30
2019-01-08T01:56:25.505Z,7.30
2019-01-08T01:58:53.902Z,7.30
2019-01-08T02:01:22.319Z,7.30
2019-01-08T02:03:50.717Z,7.30
2019-01-08T02:06:19.203Z,7.30
2019-01-08T02:08:47.600Z,7.30
2019-01-08T02:11:16.006Z,7.30
2019-01-08T02:13:44.416Z,7.30
2019-01-08T02:16:12.810Z,7.40
2019-01-08T02:18:41.221Z,7.40
2019-01-08T02:21:09.620Z,7.40
2019-01-08T02:23:38.031Z,7.40
2019-01-08T02:26:06.427Z,7.30
2019-01-08T02:28:34.858Z,7.30
2019-01-08T02:31:03.260Z,7.30
2019-01-08T02:33:31.673Z,7.30
2019-01-08T02:36:00.069Z,7.30
2019-01-08T02:38:28.480Z,7.20
2019-01-08T02:40:56.885Z,7.20
2019-01-08T02:43:25.291Z,7.20
2019-01-08T02:45:53.856Z,7.10
2019-01-08T02:48:22.270Z,7.00
2019-01-08T02:50:50.674Z,6.80
2019-01-08T02:53:19.081Z,6.40
2019-01-08T02:55:47.476Z,6.20
2019-01-08T02:58:15.900Z,6.20
2019-01-08T03:00:44.292Z,6.20
2019-01-08T03:03:12.832Z,6.20
2019-01-08T03:05:41.241Z,6.20
2019-01-08T03:08:09.649Z,6.20
2019-01-08T03:10:38.044Z,6.30
2019-01-08T03:13:06.460Z,6.20
2019-01-08T03:15:36.296Z,6.30
2019-01-08T03:18:04.704Z,6.30
2019-01-08T03:20:33.100Z,6.30
2019-01-08T03:23:01.516Z,6.40
2019-01-08T03:25:29.924Z,6.30
2019-01-08T03:27:58.328Z,6.30
2019-01-08T03:30:26.730Z,6.40
2019-01-08T03:32:55.129Z,6.40
2019-01-08T03:35:23.540Z,6.30
2019-01-08T03:37:51.956Z,6.30
2019-01-08T03:40:20.360Z,6.40
2019-01-08T03:42:48.756Z,6.40
2019-01-08T03:45:17.163Z,6.40
2019-01-08T03:47:45.560Z,6.40
2019-01-08T03:50:13.985Z,6.40
2019-01-08T03:52:42.380Z,6.50
2019-01-08T03:55:10.804Z,6.40
2019-01-08T03:57:39.204Z,6.40
2019-01-08T04:00:10.615Z,6.40
2019-01-08T04:02:40.556Z,6.30
2019-01-08T04:05:08.966Z,6.30
2019-01-08T04:07:37.511Z,6.40
2019-01-08T04:10:07.764Z,6.40
2019-01-08T04:12:36.165Z,6.40
2019-01-08T04:15:05.464Z,6.40
2019-01-08T04:17:34.136Z,6.40
2019-01-08T04:20:02.812Z,6.50
2019-01-08T04:22:31.276Z,6.40
2019-01-08T04:24:59.790Z,6.40
2019-01-08T04:27:28.184Z,6.40
2019-01-08T04:29:56.598Z,6.40
2019-01-08T04:32:25.002Z,6.40
2019-01-08T04:34:53.400Z,6.50
2019-01-08T04:37:21.869Z,6.50
2019-01-08T04:39:50.272Z,6.40
2019-01-08T04:42:18.672Z,6.50
2019-01-08T04:44:47.073Z,6.50
2019-01-08T04:47:15.489Z,6.50
2019-01-08T04:49:43.888Z,6.60
2019-01-08T04:52:12.453Z,6.50
2019-01-08T04:54:40.844Z,6.50
2019-01-08T04:57:09.247Z,6.50
2019-01-08T04:59:37.647Z,6.50
2019-01-08T05:02:06.064Z,6.50
2019-01-08T05:04:34.456Z,6.40
2019-01-08T05:07:02.867Z,6.40
2019-01-08T05:09:31.266Z,6.30
2019-01-08T05:11:59.676Z,6.30
2019-01-08T05:14:28.081Z,6.30
2019-01-08T05:16:56.549Z,6.30
2019-01-08T05:19:24.949Z,6.30
2019-01-08T05:21:53.530Z,6.20
2019-01-08T05:24:21.979Z,6.20
2019-01-08T05:26:50.392Z,6.20
2019-01-08T05:29:18.796Z,6.20
2019-01-08T05:31:47.211Z,6.20
2019-01-08T05:34:17.140Z,6.20
2019-01-08T05:36:45.552Z,6.20
2019-01-08T05:39:13.964Z,6.20
2019-01-08T05:41:42.364Z,6.20
2019-01-08T05:44:10.766Z,6.20
2019-01-08T05:46:39.164Z,6.20
2019-01-08T05:49:07.573Z,6.10
2019-01-08T05:51:35.975Z,6.20
2019-01-08T05:54:04.400Z,6.20
2019-01-08T05:56:32.953Z,6.20
2019-01-08T05:59:01.485Z,6.30
2019-01-08T06:01:29.892Z,6.30
2019-01-08T06:03:58.300Z,6.30
2019-01-08T06:06:27.266Z,6.40
2019-01-08T06:08:55.680Z,6.40
2019-01-08T06:11:24.140Z,6.30
2019-01-08T06:13:52.561Z,6.30
2019-01-08T06:16:20.962Z,6.30
2019-01-08T06:18:49.372Z,6.30
2019-01-08T06:21:17.776Z,6.30
2019-01-08T06:23:46.207Z,6.30
2019-01-08T06:26:14.603Z,6.40
2019-01-08T06:28:43.012Z,6.40
2019-01-08T06:31:11.468Z,6.40
2019-01-08T06:33:39.876Z,6.40
2019-01-08T06:36:08.328Z,6.40
2019-01-08T06:38:36.736Z,6.40
2019-01-08T06:41:05.137Z,6.40
2019-01-08T06:43:33.552Z,6.40
2019-01-08T06:46:01.980Z,6.40
2019-01-08T06:48:30.621Z,6.40
2019-01-08T06:50:59.021Z,6.50
2019-01-08T06:53:27.427Z,6.40
2019-01-08T06:55:58.742Z,6.40
2019-01-08T06:58:27.305Z,7.40
2019-01-08T07:00:55.769Z,7.50
2019-01-08T07:03:24.465Z,7.40
2019-01-08T07:05:52.877Z,7.50
2019-01-08T07:08:21.343Z,7.60
2019-01-08T07:10:49.753Z,7.60
2019-01-08T07:13:18.153Z,7.60
2019-01-08T07:15:46.562Z,7.70
2019-01-08T07:18:14.960Z,6.80
2019-01-08T07:20:43.372Z,6.40
2019-01-08T07:23:11.779Z,6.30
2019-01-08T07:25:42.309Z,6.30
2019-01-08T07:28:10.310Z,6.30
2019-01-08T07:30:41.632Z,6.30
2019-01-08T07:33:08.908Z,6.40
2019-01-08T07:35:37.325Z,6.40
2019-01-08T07:38:05.818Z,6.30
2019-01-08T07:40:34.220Z,6.30
2019-01-08T07:43:02.615Z,6.30
2019-01-08T07:45:31.024Z,6.30
2019-01-08T07:47:59.420Z,6.30
2019-01-08T07:50:27.829Z,6.30
2019-01-08T07:52:56.385Z,6.30
2019-01-08T07:55:24.788Z,6.40
2019-01-08T07:57:53.187Z,6.40
2019-01-08T08:00:21.604Z,6.50
2019-01-08T08:02:50.052Z,6.50
2019-01-08T08:05:18.503Z,6.50
2019-01-08T08:07:48.037Z,6.60
2019-01-08T08:10:16.444Z,6.60
2019-01-08T08:12:44.845Z,6.50
2019-01-08T08:15:13.256Z,6.50
2019-01-08T08:17:41.657Z,6.50
2019-01-08T08:20:10.064Z,6.50
2019-01-08T08:22:38.473Z,6.50
2019-01-08T08:25:07.354Z,6.50
2019-01-08T08:27:35.767Z,6.60
2019-01-08T08:30:06.212Z,6.60
2019-01-08T08:32:34.611Z,6.60
2019-01-08T08:35:08.260Z,6.60
2019-01-08T08:37:33.405Z,6.70
2019-01-08T08:40:01.815Z,6.70
2019-01-08T08:42:30.219Z,6.70
2019-01-08T08:44:58.620Z,6.70
2019-01-08T08:47:28.448Z,6.70
2019-01-08T08:49:56.920Z,6.70
2019-01-08T08:52:25.460Z,6.70
2019-01-08T08:54:53.862Z,6.70
2019-01-08T08:57:22.277Z,6.70
2019-01-08T08:59:50.665Z,6.70
2019-01-08T09:02:19.080Z,6.70
2019-01-08T09:04:47.477Z,6.60
2019-01-08T09:07:15.885Z,6.60
2019-01-08T09:09:44.292Z,6.50
2019-01-08T09:12:12.696Z,6.50
2019-01-08T09:14:42.139Z,6.50
2019-01-08T09:17:11.784Z,6.50
2019-01-08T09:19:40.216Z,6.50
2019-01-08T09:22:08.624Z,6.50
2019-01-08T09:24:37.031Z,6.60
2019-01-08T09:27:05.436Z,6.60
2019-01-08T09:29:33.841Z,6.60
2019-01-08T09:32:02.430Z,6.60
2019-01-08T09:34:30.984Z,6.50
2019-01-08T09:36:59.401Z,6.50
2019-01-08T09:39:27.805Z,6.40
2019-01-08T09:41:56.216Z,6.50
2019-01-08T09:44:24.617Z,6.50
2019-01-08T09:46:53.156Z,6.50
2019-01-08T09:49:21.558Z,6.60
2019-01-08T09:51:49.964Z,6.50
2019-01-08T09:54:18.374Z,6.60
2019-01-08T09:56:46.777Z,6.50
2019-01-08T09:59:15.251Z,6.40
2019-01-08T10:01:43.660Z,6.40
2019-01-08T10:04:12.096Z,6.40
2019-01-08T10:06:40.507Z,6.50
2019-01-08T10:09:08.905Z,6.50
2019-01-08T10:11:37.716Z,6.60
2019-01-08T10:14:06.109Z,6.60
2019-01-08T10:16:34.533Z,6.60
2019-01-08T10:19:02.928Z,6.60
2019-01-08T10:21:31.517Z,6.60
2019-01-08T10:24:01.956Z,6.50
2019-01-08T10:26:30.041Z,6.50
2019-01-08T10:28:58.448Z,6.30
2019-01-08T10:31:32.289Z,6.30
2019-01-08T10:33:57.104Z,6.30
2019-01-08T10:36:25.497Z,6.40
2019-01-08T10:38:53.904Z,6.30
2019-01-08T10:41:22.299Z,6.30
2019-01-08T10:43:50.708Z,6.40
2019-01-08T10:46:19.105Z,6.40
2019-01-08T10:48:47.560Z,6.40
2019-01-08T10:51:15.963Z,6.40
2019-01-08T10:53:44.424Z,6.50
2019-01-08T10:56:12.953Z,6.50
2019-01-08T10:58:41.361Z,6.50
2019-01-08T11:01:09.764Z,6.60
2019-01-08T11:03:38.177Z,6.60
2019-01-08T11:06:06.624Z,6.60
2019-01-08T11:08:35.033Z,6.60
2019-01-08T11:11:03.432Z,6.60
2019-01-08T11:13:31.839Z,6.60
2019-01-08T11:16:00.242Z,6.70
2019-01-08T11:18:28.656Z,6.60
2019-01-08T11:20:57.052Z,6.60
2019-01-08T11:23:25.460Z,6.70
2019-01-08T11:25:53.860Z,6.60
2019-01-08T11:28:22.332Z,6.70
2019-01-08T11:30:50.731Z,6.70
2019-01-08T11:33:20.174Z,6.70
2019-01-08T11:35:48.582Z,6.70
2019-01-08T11:38:16.990Z,6.80
2019-01-08T11:40:45.394Z,6.70
2019-01-08T11:43:13.798Z,6.60
2019-01-08T11:45:42.204Z,6.70
2019-01-08T11:48:10.615Z,6.60
2019-01-08T11:50:39.004Z,6.60
2019-01-08T11:53:07.437Z,6.70
2019-01-08T11:55:35.889Z,6.70
2019-01-08T11:58:04.404Z,6.70
2019-01-08T12:00:32.812Z,6.70
2019-01-08T12:03:01.208Z,6.70
2019-01-08T12:05:29.624Z,6.70
2019-01-08T12:07:58.020Z,6.70
2019-01-08T12:10:26.428Z,6.70
2019-01-08T12:12:55.004Z,6.70
2019-01-08T12:15:23.524Z,6.70
2019-01-08T12:17:51.925Z,6.70
2019-01-08T12:20:20.330Z,6.70
2019-01-08T12:22:48.734Z,6.60
2019-01-08T12:25:17.144Z,6.60
2019-01-08T12:27:45.538Z,6.60
2019-01-08T12:30:14.036Z,6.70
2019-01-08T12:32:42.434Z,6.60
2019-01-08T12:35:10.840Z,6.50
2019-01-08T12:37:39.241Z,6.50
2019-01-08T12:40:07.925Z,6.50
2019-01-08T12:42:36.324Z,6.50
2019-01-08T12:45:06.069Z,6.60
2019-01-08T12:47:34.469Z,6.50
2019-01-08T12:50:02.880Z,6.60
2019-01-08T12:52:31.312Z,6.60
2019-01-08T12:54:59.720Z,6.60
2019-01-08T12:57:28.128Z,6.50
2019-01-08T12:59:56.546Z,6.50
2019-01-08T13:02:24.937Z,6.50
2019-01-08T13:04:54.820Z,6.50
2019-01-08T13:07:23.224Z,6.60
2019-01-08T13:09:51.682Z,6.50
2019-01-08T13:12:20.080Z,6.60
2019-01-08T13:14:48.489Z,6.70
2019-01-08T13:17:16.894Z,6.60
2019-01-08T13:19:45.340Z,6.70
2019-01-08T13:22:13.751Z,6.70
2019-01-08T13:24:42.155Z,6.60
2019-01-08T13:27:10.558Z,6.70
2019-01-08T13:29:39.040Z,6.60
2019-01-08T13:32:07.437Z,6.60
2019-01-08T13:34:35.840Z,6.60
2019-01-08T13:37:04.242Z,6.50
2019-01-08T13:39:32.649Z,6.60
2019-01-08T13:42:01.048Z,6.40
2019-01-08T13:44:29.457Z,6.30
2019-01-08T13:46:57.857Z,6.20
2019-01-08T13:49:26.269Z,6.20
2019-01-08T13:51:54.668Z,6.20
2019-01-08T13:54:23.060Z,6.10
2019-01-08T13:56:51.785Z,6.20
2019-01-08T13:59:20.188Z,6.30
2019-01-08T14:01:48.594Z,6.30
2019-01-08T14:04:16.990Z,6.40
2019-01-08T14:06:45.396Z,6.30
2019-01-08T14:09:13.797Z,6.30
2019-01-08T14:11:42.256Z,6.20
2019-01-08T14:14:10.673Z,6.20
2019-01-08T14:16:39.200Z,6.10
2019-01-08T14:19:07.592Z,6.10
2019-01-08T14:21:35.996Z,6.00
2019-01-08T14:24:04.393Z,6.10
2019-01-08T14:26:32.803Z,6.00
2019-01-08T14:29:01.200Z,5.90
2019-01-08T14:31:29.608Z,5.90
2019-01-08T14:33:58.004Z,5.90
2019-01-08T14:36:26.408Z,6.00
2019-01-08T14:38:54.812Z,5.90
2019-01-08T14:41:23.217Z,5.90
2019-01-08T14:43:53.250Z,5.90
2019-01-08T14:46:21.657Z,5.80
2019-01-08T14:48:50.148Z,5.80
2019-01-08T14:51:18.839Z,5.90
2019-01-08T14:53:47.237Z,5.80
2019-01-08T14:56:15.726Z,5.80
2019-01-08T14:58:44.195Z,5.80
2019-01-08T15:01:12.604Z,5.80
2019-01-08T15:03:41.366Z,5.80
2019-01-08T15:06:09.777Z,5.80
2019-01-08T15:08:38.178Z,5.80
2019-01-08T15:11:06.578Z,5.80
2019-01-08T15:13:34.968Z,5.70
2019-01-08T15:16:03.476Z,5.70
2019-01-08T15:18:31.872Z,5.60
2019-01-08T15:21:00.281Z,5.60
2019-01-08T15:23:28.685Z,5.60
2019-01-08T15:25:57.089Z,5.70
2019-01-08T15:28:25.489Z,5.70
2019-01-08T15:30:54.075Z,5.60
2019-01-08T15:33:22.524Z,5.60
2019-01-08T15:35:50.917Z,5.50
2019-01-08T15:38:19.324Z,5.60
2019-01-08T15:40:47.725Z,5.60
2019-01-08T15:43:16.129Z,5.50
2019-01-08T15:45:45.390Z,5.40
2019-01-08T15:48:13.792Z,5.30
2019-01-08T15:50:42.197Z,4.40
2019-01-08T15:53:11.611Z,5.30
2019-01-08T15:55:39.977Z,5.40
2019-01-08T15:58:08.387Z,5.30
2019-01-08T16:00:36.788Z,5.30
2019-01-08T16:03:07.445Z,5.20
2019-01-08T16:05:35.321Z,5.30
2019-01-08T16:08:03.730Z,5.20
2019-01-08T16:10:32.120Z,5.20
2019-01-08T16:13:00.528Z,5.20
2019-01-08T16:15:28.924Z,5.10
2019-01-08T16:17:57.332Z,5.20
2019-01-08T16:20:25.735Z,5.20
2019-01-08T16:22:54.145Z,5.20
2019-01-08T16:25:22.540Z,5.20
2019-01-08T16:27:50.977Z,5.20
2019-01-08T16:30:20.170Z,5.20
2019-01-08T16:32:48.749Z,5.10
2019-01-08T16:35:17.149Z,5.10
2019-01-08T16:37:45.557Z,5.10
2019-01-08T16:40:14.824Z,5.20
2019-01-08T16:42:43.351Z,5.20
2019-01-08T16:45:11.763Z,5.20
2019-01-08T16:47:40.175Z,5.20
2019-01-08T16:50:08.581Z,5.20
2019-01-08T16:52:36.984Z,5.10
2019-01-08T16:55:06.320Z,5.10
2019-01-08T16:57:34.724Z,5.20
2019-01-08T17:00:03.513Z,5.10
2019-01-08T17:02:33.040Z,5.10
2019-01-08T17:05:01.696Z,5.10
2019-01-08T17:07:30.094Z,5.10
2019-01-08T17:09:58.487Z,5.10
2019-01-08T17:12:26.891Z,5.20
2019-01-08T17:14:55.637Z,5.10
2019-01-08T17:17:24.024Z,5.00
2019-01-08T17:19:52.613Z,5.00
2019-01-08T17:22:21.029Z,5.00
2019-01-08T17:24:49.673Z,5.00
2019-01-08T17:27:18.307Z,5.00
2019-01-08T17:29:46.713Z,5.10
2019-01-08T17:32:15.408Z,5.00
2019-01-08T17:34:43.992Z,5.70
2019-01-08T17:37:12.404Z,6.20
2019-01-08T17:39:40.829Z,6.40
2019-01-08T17:42:09.227Z,6.00
2019-01-08T17:44:37.709Z,6.00
2019-01-08T17:47:06.723Z,6.10
2019-01-08T17:49:35.132Z,6.00
2019-01-08T17:52:03.662Z,6.10
2019-01-08T17:54:32.341Z,5.90
2019-01-08T17:57:01.364Z,5.60
2019-01-08T17:59:29.854Z,5.50
2019-01-08T18:01:58.253Z,5.30
2019-01-08T18:04:26.664Z,5.10
2019-01-08T18:06:55.049Z,5.00
2019-01-08T18:09:23.853Z,5.00
2019-01-08T18:11:52.249Z,4.90
2019-01-08T18:14:20.700Z,4.90
2019-01-08T18:16:49.100Z,4.90
2019-01-08T18:19:17.504Z,4.90
2019-01-08T18:21:45.911Z,4.90
2019-01-08T18:24:14.323Z,4.80
2019-01-08T18:26:42.720Z,4.80
2019-01-08T18:29:11.380Z,4.80
2019-01-08T18:31:40.461Z,4.80
2019-01-08T18:34:08.896Z,4.80
2019-01-08T18:36:37.302Z,4.80
2019-01-08T18:39:07.159Z,4.80
2019-01-08T18:41:35.568Z,4.90
2019-01-08T18:44:06.957Z,4.90
2019-01-08T18:46:35.451Z,4.90
2019-01-08T18:49:03.856Z,4.80
2019-01-08T18:51:32.268Z,4.80
2019-01-08T18:54:00.665Z,4.80
2019-01-08T18:56:29.069Z,4.90
2019-01-08T18:58:57.494Z,4.90
2019-01-08T19:01:25.884Z,4.90
2019-01-08T19:03:59.730Z,4.90
2019-01-08T19:06:24.416Z,5.00
2019-01-08T19:09:23.904Z,4.90
2019-01-08T19:11:52.584Z,4.90
2019-01-08T19:14:23.742Z,4.80
2019-01-08T19:16:53.678Z,4.90
2019-01-08T19:19:22.074Z,4.80
2019-01-08T19:21:50.808Z,4.80
2019-01-08T19:24:20.038Z,4.80
2019-01-08T19:26:48.470Z,4.80
2019-01-08T19:29:16.872Z,4.70
2019-01-08T19:31:45.277Z,4.60
2019-01-08T19:34:13.672Z,4.60
2019-01-08T19:36:42.245Z,4.50
2019-01-08T19:39:10.642Z,4.50
2019-01-08T19:41:40.340Z,4.60
2019-01-08T19:44:08.800Z,4.50
2019-01-08T19:46:37.265Z,4.50
2019-01-08T19:49:05.822Z,4.60
2019-01-08T19:51:34.265Z,4.60
2019-01-08T19:54:02.656Z,4.70
2019-01-08T19:56:31.214Z,5.20
2019-01-08T19:58:59.789Z,4.80
2019-01-08T20:01:28.193Z,4.40
2019-01-08T20:03:56.591Z,4.30
2019-01-08T20:06:25.012Z,4.30
2019-01-08T20:08:53.608Z,4.30
2019-01-08T20:11:22.027Z,4.30
2019-01-08T20:13:50.437Z,4.10
2019-01-08T20:16:18.847Z,4.00
2019-01-08T20:18:47.369Z,4.00
2019-01-08T20:21:15.821Z,4.00
2019-01-08T20:23:44.228Z,4.00
2019-01-08T20:26:12.671Z,3.80
2019-01-08T20:28:41.072Z,3.90
2019-01-08T20:31:09.477Z,3.90
2019-01-08T20:33:37.872Z,3.80
2019-01-08T20:36:06.282Z,3.70
2019-01-08T20:38:34.714Z,3.70
2019-01-08T20:41:03.241Z,3.70
2019-01-08T20:43:31.660Z,3.50
2019-01-08T20:46:00.060Z,3.40
2019-01-08T20:48:31.151Z,3.60
2019-01-08T20:50:59.600Z,3.60
2019-01-08T20:53:28.001Z,3.60
2019-01-08T20:55:56.571Z,3.60
2019-01-08T20:58:28.635Z,3.60
2019-01-08T21:00:55.101Z,3.60
2019-01-08T21:03:23.791Z,3.50
2019-01-08T21:05:52.177Z,3.40
2019-01-08T21:08:20.716Z,3.30
2019-01-08T21:10:49.112Z,3.40
2019-01-08T21:13:18.287Z,3.40
2019-01-08T21:15:47.216Z,3.50
2019-01-08T21:18:16.166Z,3.50
2019-01-08T21:20:44.865Z,3.60
2019-01-08T21:23:13.891Z,3.60
2019-01-08T21:25:42.553Z,3.70
2019-01-08T21:28:10.956Z,3.70
2019-01-08T21:30:40.891Z,3.70
2019-01-08T21:33:10.529Z,3.70
2019-01-08T21:35:38.888Z,3.70
2019-01-08T21:38:07.296Z,3.60
2019-01-08T21:40:35.697Z,3.60
2019-01-08T21:43:04.126Z,3.70
2019-01-08T21:45:32.537Z,3.70
2019-01-08T21:48:00.973Z,3.60
2019-01-08T21:50:29.373Z,3.70
2019-01-08T21:52:58.853Z,3.70
2019-01-08T21:55:27.251Z,3.60
2019-01-08T21:57:55.656Z,3.60
2019-01-08T22:00:24.052Z,3.60
2019-01-08T22:02:53.441Z,3.60
2019-01-08T22:05:21.833Z,3.60
2019-01-08T22:07:50.508Z,3.60
2019-01-08T22:10:18.912Z,3.60
2019-01-08T22:12:47.330Z,3.60
2019-01-08T22:15:15.723Z,3.50
2019-01-08T22:17:44.301Z,3.60
2019-01-08T22:20:13.171Z,3.60
2019-01-08T22:22:52.354Z,3.60
2019-01-08T22:25:13.884Z,3.50
2019-01-08T22:27:42.357Z,3.50
2019-01-08T22:30:10.940Z,3.50
2019-01-08T22:32:39.354Z,3.50
2019-01-08T22:35:08.514Z,3.50
2019-01-08T22:37:36.912Z,3.60
2019-01-08T22:40:08.059Z,3.50
2019-01-08T22:42:36.821Z,3.50
2019-01-08T22:45:06.633Z,3.50
2019-01-08T22:47:36.563Z,3.50
2019-01-08T22:50:07.073Z,3.50
2019-01-08T22:52:35.841Z,3.50
2019-01-08T22:55:05.095Z,3.50
2019-01-08T22:57:33.492Z,3.40
2019-01-08T23:00:02.119Z,3.50
2019-01-08T23:02:30.787Z,3.60
2019-01-08T23:04:59.203Z,3.60
2019-01-08T23:07:27.645Z,3.70
2019-01-08T23:09:56.048Z,3.70
2019-01-08T23:12:24.452Z,3.80
2019-01-08T23:14:52.899Z,3.90
2019-01-08T23:17:21.512Z,3.80
2019-01-08T23:19:49.920Z,3.80
2019-01-08T23:22:18.320Z,3.90
2019-01-08T23:24:46.739Z,3.90
2019-01-08T23:27:15.152Z,3.80
2019-01-08T23:29:43.560Z,3.90
2019-01-08T23:32:12.261Z,3.80
2019-01-08T23:34:40.675Z,3.90
2019-01-08T23:37:09.081Z,4.00
2019-01-08T23:39:37.496Z,3.90
2019-01-08T23:42:05.996Z,3.90
2019-01-08T23:44:34.488Z,4.00
2019-01-08T23:47:02.871Z,3.90
2019-01-08T23:49:31.319Z,4.00
2019-01-08T23:52:02.373Z,3.90
2019-01-08T23:54:32.319Z,4.00
2019-01-08T23:57:02.756Z,3.90
2019-01-08T23:59:31.165Z,3.90
